Time;durP1;ratioP1;P1;durP2;ratioP2;P2;SDS_P1;SDS_P2;PMS_P1;PMS_P2;Temp;Humidity;BMP_temperature;BMP_pressure;BME280_temperature;BME280_humidity;BME280_pressure;Samples;Min_cycle;Max_cycle;Signal;HPM_P1;HPM_P2
2023/04/22 00:00:47;;;;;;;11.20;4.60;;;15.40;99.90;;;;;;5113678;28;20240;-81
2023/04/22 00:03:14;;;;;;;8.98;4.10;;;15.30;99.90;;;;;;5114094;28;20241;-84
2023/04/22 00:05:43;;;;;;;10.95;4.70;;;15.30;99.90;;;;;;5112731;28;20671;-78
2023/04/22 00:08:10;;;;;;;10.35;4.60;;;15.30;99.90;;;;;;5113712;28;20213;-80
2023/04/22 00:10:37;;;;;;;8.68;4.32;;;15.30;99.90;;;;;;5114192;28;20287;-82
2023/04/22 00:13:04;;;;;;;6.68;4.40;;;15.30;99.90;;;;;;5113794;28;20204;-81
2023/04/22 00:15:31;;;;;;;7.60;4.63;;;15.40;99.90;;;;;;5113709;28;20608;-80
2023/04/22 00:17:59;;;;;;;12.13;5.43;;;15.30;99.90;;;;;;5113152;28;20253;-81
2023/04/22 00:20:26;;;;;;;9.68;4.10;;;15.30;99.90;;;;;;5113838;28;20232;-81
2023/04/22 00:22:53;;;;;;;7.57;3.65;;;15.20;99.90;;;;;;5113557;28;20595;-81
2023/04/22 00:25:20;;;;;;;9.73;4.53;;;15.20;99.90;;;;;;5113259;28;20294;-81
2023/04/22 00:27:47;;;;;;;7.32;4.03;;;15.20;99.90;;;;;;5113157;28;20201;-78
2023/04/22 00:30:15;;;;;;;9.93;4.25;;;15.20;99.90;;;;;;5112995;28;20271;-81
2023/04/22 00:32:42;;;;;;;8.95;4.05;;;15.20;99.90;;;;;;5112956;28;20737;-85
2023/04/22 00:35:10;;;;;;;12.07;4.80;;;15.20;99.90;;;;;;5113582;28;20243;-79
2023/04/22 00:37:37;;;;;;;8.80;4.20;;;15.30;99.90;;;;;;5113523;28;20204;-86
2023/04/22 00:40:05;;;;;;;13.13;4.45;;;15.30;99.90;;;;;;5113245;28;20844;-91
2023/04/22 00:42:32;;;;;;;6.65;4.30;;;15.20;99.90;;;;;;5113169;28;20205;-77
2023/04/22 00:45:00;;;;;;;10.80;5.57;;;15.20;99.90;;;;;;5112833;28;20208;-85
2023/04/22 00:47:27;;;;;;;12.05;4.30;;;15.20;99.90;;;;;;5113191;28;20250;-80
2023/04/22 00:49:54;;;;;;;8.20;3.85;;;15.20;99.90;;;;;;5112679;28;20229;-79
2023/04/22 00:52:23;;;;;;;8.68;4.32;;;15.20;99.90;;;;;;5114447;28;20232;-80
2023/04/22 00:54:51;;;;;;;9.77;4.43;;;15.10;99.90;;;;;;5112767;28;20232;-81
2023/04/22 00:57:18;;;;;;;9.18;3.88;;;15.10;99.90;;;;;;5112879;28;20197;-79
2023/04/22 00:59:46;;;;;;;10.20;3.72;;;15.20;99.90;;;;;;5112270;28;20204;-79
2023/04/22 01:02:14;;;;;;;8.73;3.58;;;15.20;99.90;;;;;;5112618;28;20207;-83
2023/04/22 01:04:41;;;;;;;9.43;3.72;;;15.20;99.90;;;;;;5112231;28;20205;-77
2023/04/22 01:07:08;;;;;;;12.02;3.72;;;15.20;99.90;;;;;;5112663;28;20239;-82
2023/04/22 01:09:38;;;;;;;12.48;4.43;;;15.20;99.90;;;;;;5112875;28;20644;-78
2023/04/22 01:12:05;;;;;;;11.20;4.60;;;15.20;99.90;;;;;;5112743;28;20211;-83
2023/04/22 01:14:33;;;;;;;8.55;3.65;;;15.10;99.90;;;;;;5112710;28;20232;-83
2023/04/22 01:17:00;;;;;;;8.73;4.15;;;15.10;99.90;;;;;;5111058;28;20583;-83
2023/04/22 01:19:28;;;;;;;13.82;4.97;;;15.20;99.90;;;;;;5112118;28;20200;-79
2023/04/22 01:21:55;;;;;;;10.63;4.43;;;15.10;99.90;;;;;;5111591;28;20212;-81
2023/04/22 01:24:24;;;;;;;9.15;4.35;;;15.10;99.90;;;;;;5113174;28;20564;-85
2023/04/22 01:26:51;;;;;;;10.20;5.15;;;15.10;99.90;;;;;;5113099;28;20209;-84
2023/04/22 01:29:18;;;;;;;13.18;4.22;;;15.10;99.90;;;;;;5112484;28;20264;-86
2023/04/22 01:31:45;;;;;;;10.15;4.35;;;15.10;99.90;;;;;;5116287;28;20664;-87
2023/04/22 01:34:12;;;;;;;6.68;3.70;;;15.10;99.90;;;;;;5122751;28;20201;-87
2023/04/22 01:36:39;;;;;;;11.85;4.28;;;15.00;99.90;;;;;;5112310;28;20236;-80
2023/04/22 01:39:07;;;;;;;10.40;4.97;;;15.00;99.90;;;;;;5113266;28;20200;-82
2023/04/22 01:41:35;;;;;;;6.75;3.83;;;15.10;99.90;;;;;;5112499;28;20209;-82
2023/04/22 01:44:03;;;;;;;14.50;4.78;;;15.00;99.90;;;;;;5111895;28;20261;-86
2023/04/22 01:46:30;;;;;;;8.82;3.88;;;14.90;99.90;;;;;;5112422;28;20236;-85
2023/04/22 01:48:57;;;;;;;7.82;4.05;;;15.00;99.90;;;;;;5112101;28;20236;-89
2023/04/22 01:51:24;;;;;;;8.75;4.57;;;14.90;99.90;;;;;;5112294;28;20618;-87
2023/04/22 01:53:51;;;;;;;14.93;4.05;;;14.90;99.90;;;;;;5117137;28;20201;-86
2023/04/22 01:56:18;;;;;;;11.57;3.85;;;14.90;99.90;;;;;;5115645;28;20575;-85
2023/04/22 01:58:47;;;;;;;10.13;5.20;;;14.90;99.90;;;;;;5111983;28;20205;-86
2023/04/22 02:01:14;;;;;;;9.30;4.30;;;14.90;99.90;;;;;;5112210;28;20664;-82
2023/04/22 02:03:41;;;;;;;10.60;3.53;;;14.90;99.90;;;;;;5111987;28;20203;-79
2023/04/22 02:06:08;;;;;;;13.13;4.13;;;15.00;99.90;;;;;;5112355;28;20201;-87
2023/04/22 02:08:35;;;;;;;8.65;5.13;;;15.00;99.90;;;;;;5112150;28;20269;-87
2023/04/22 02:11:02;;;;;;;10.57;5.50;;;15.00;99.90;;;;;;5111035;28;20232;-85
2023/04/22 02:13:36;;;;;;;10.73;4.00;;;15.00;99.90;;;;;;5112209;28;21146;-81
2023/04/22 02:16:05;;;;;;;9.07;4.00;;;15.00;99.90;;;;;;5112040;28;20272;-90
2023/04/22 02:18:32;;;;;;;9.85;4.45;;;15.00;99.90;;;;;;5113478;28;20618;-86
2023/04/22 02:20:59;;;;;;;12.07;3.72;;;15.00;99.90;;;;;;5112670;28;20248;-87
2023/04/22 02:23:27;;;;;;;11.95;4.07;;;14.90;99.90;;;;;;5113419;28;20236;-88
2023/04/22 02:25:54;;;;;;;8.35;4.22;;;15.00;99.90;;;;;;5118863;28;20212;-88
2023/04/22 02:28:21;;;;;;;6.72;4.00;;;15.00;99.90;;;;;;5119620;28;20197;-90
2023/04/22 02:30:48;;;;;;;7.97;4.05;;;14.90;99.90;;;;;;5116216;28;20324;-87
2023/04/22 02:33:17;;;;;;;7.30;4.05;;;14.90;99.90;;;;;;5116697;28;20285;-85
2023/04/22 02:35:44;;;;;;;10.65;5.75;;;14.80;99.90;;;;;;5115444;27;20258;-84
2023/04/22 02:38:11;;;;;;;7.53;3.75;;;14.80;99.90;;;;;;5115895;28;20691;-89
2023/04/22 02:40:38;;;;;;;11.95;3.67;;;14.80;99.90;;;;;;5116471;28;20201;-86
2023/04/22 02:43:05;;;;;;;13.85;4.25;;;14.80;99.90;;;;;;5115715;28;20236;-85
2023/04/22 02:45:32;;;;;;;9.05;3.90;;;14.80;99.90;;;;;;5116170;28;20245;-89
2023/04/22 02:47:59;;;;;;;10.13;4.22;;;14.90;99.90;;;;;;5115627;28;20647;-90
2023/04/22 02:50:27;;;;;;;10.80;4.53;;;14.90;99.90;;;;;;5115369;28;20787;-82
2023/04/22 02:52:54;;;;;;;12.57;3.78;;;14.90;99.90;;;;;;5115226;28;20655;-88
2023/04/22 02:55:23;;;;;;;11.07;5.00;;;14.90;99.90;;;;;;5118573;28;20232;-85
2023/04/22 02:57:50;;;;;;;13.70;4.97;;;14.90;99.90;;;;;;5119553;28;20291;-87
2023/04/22 03:00:17;;;;;;;14.38;5.35;;;14.90;99.90;;;;;;5116101;28;20254;-82
2023/04/22 03:02:44;;;;;;;12.88;4.45;;;14.90;99.90;;;;;;5115351;28;20322;-82
2023/04/22 03:05:11;;;;;;;9.80;5.35;;;14.90;99.90;;;;;;5115563;28;20285;-88
2023/04/22 03:07:39;;;;;;;8.52;4.50;;;14.80;99.90;;;;;;5120022;28;20269;-84
2023/04/22 03:10:08;;;;;;;10.43;4.05;;;14.90;99.90;;;;;;5124258;28;20232;-84
2023/04/22 03:12:35;;;;;;;10.45;4.60;;;14.90;99.90;;;;;;5118858;28;20201;-90
2023/04/22 03:15:02;;;;;;;8.95;3.42;;;14.80;99.90;;;;;;5115529;28;20293;-82
2023/04/22 03:17:28;;;;;;;11.85;3.85;;;14.80;99.90;;;;;;5115035;28;20240;-77
2023/04/22 03:19:56;;;;;;;15.20;5.90;;;14.80;99.90;;;;;;5114585;28;20201;-78
2023/04/22 03:22:22;;;;;;;8.90;3.88;;;14.80;99.90;;;;;;5115125;28;20250;-89
2023/04/22 03:24:51;;;;;;;13.02;5.00;;;14.80;99.90;;;;;;5114855;28;20748;-81
2023/04/22 03:27:18;;;;;;;19.65;5.70;;;14.80;99.90;;;;;;5120722;28;20246;-91
2023/04/22 03:29:45;;;;;;;12.75;4.97;;;14.80;99.90;;;;;;5117944;28;20250;-86
2023/04/22 03:32:12;;;;;;;11.80;5.45;;;14.80;99.90;;;;;;5115508;28;20201;-89
2023/04/22 03:34:39;;;;;;;9.68;5.25;;;14.80;99.90;;;;;;5116040;28;20258;-80
2023/04/22 03:37:06;;;;;;;18.33;5.63;;;14.70;99.90;;;;;;5115408;28;20690;-92
2023/04/22 03:39:33;;;;;;;18.80;5.65;;;14.70;99.90;;;;;;5115332;28;20285;-87
2023/04/22 03:42:01;;;;;;;11.75;5.03;;;14.70;99.90;;;;;;5095152;28;20736;-87
2023/04/22 03:44:28;;;;;;;11.00;4.93;;;14.80;99.90;;;;;;5114563;28;20556;-88
2023/04/22 03:46:55;;;;;;;9.63;3.90;;;14.80;99.90;;;;;;5113924;28;20273;-87
2023/04/22 03:49:22;;;;;;;16.27;5.30;;;14.80;99.90;;;;;;5115122;28;20232;-85
2023/04/22 03:51:49;;;;;;;13.52;4.47;;;14.80;99.90;;;;;;5114625;28;20268;-87
2023/04/22 03:54:16;;;;;;;13.73;4.38;;;14.80;99.90;;;;;;5112464;28;20258;-91
2023/04/22 03:56:43;;;;;;;14.13;5.65;;;14.80;99.90;;;;;;5116028;28;20236;-87
2023/04/22 03:59:11;;;;;;;15.07;5.80;;;14.80;99.90;;;;;;5122241;28;20201;-83
2023/04/22 04:01:38;;;;;;;11.07;5.13;;;14.80;99.90;;;;;;5115380;28;20668;-89
2023/04/22 04:04:05;;;;;;;15.93;5.35;;;14.80;99.90;;;;;;5114823;28;20741;-88
2023/04/22 04:06:32;;;;;;;9.68;4.82;;;14.80;99.90;;;;;;5114594;28;20243;-91
2023/04/22 04:09:00;;;;;;;14.68;6.40;;;14.80;99.90;;;;;;5114122;28;20319;-90
2023/04/22 04:11:27;;;;;;;10.82;5.47;;;14.80;99.90;;;;;;5113865;28;20233;-86
2023/04/22 04:13:54;;;;;;;9.68;5.65;;;14.80;99.90;;;;;;5114181;28;20224;-91
2023/04/22 04:16:22;;;;;;;13.98;5.13;;;14.70;99.90;;;;;;5114228;28;20261;-89
2023/04/22 04:18:50;;;;;;;7.80;4.20;;;14.70;99.90;;;;;;5114274;28;20250;-89
2023/04/22 04:21:17;;;;;;;9.88;5.13;;;14.70;99.90;;;;;;5114951;28;20205;-93
2023/04/22 04:23:44;;;;;;;7.57;4.00;;;14.60;99.90;;;;;;5113539;28;20246;-87
2023/04/22 04:26:13;;;;;;;13.50;4.55;;;14.60;99.90;;;;;;5114376;28;20204;-89
2023/04/22 04:28:41;;;;;;;10.48;6.35;;;14.60;99.90;;;;;;5118441;28;20227;-87
2023/04/22 04:31:08;;;;;;;12.07;5.43;;;14.60;99.90;;;;;;5119550;28;20289;-92
2023/04/22 04:33:36;;;;;;;9.63;5.10;;;14.60;99.90;;;;;;5115124;28;20243;-88
2023/04/22 04:36:04;;;;;;;12.45;4.72;;;14.60;99.90;;;;;;5112530;28;20209;-86
2023/04/22 04:38:31;;;;;;;7.13;4.45;;;14.60;99.90;;;;;;5114276;28;20690;-89
2023/04/22 04:40:58;;;;;;;10.63;5.88;;;14.70;99.90;;;;;;5115510;28;20201;-88
2023/04/22 04:43:25;;;;;;;9.52;4.18;;;14.70;99.90;;;;;;5114473;28;20620;-89
2023/04/22 04:45:53;;;;;;;10.23;4.30;;;14.80;99.90;;;;;;5121059;28;20212;-83
2023/04/22 04:48:23;;;;;;;7.07;3.95;;;14.80;99.90;;;;;;5124586;28;20258;-83
2023/04/22 04:50:53;;;;;;;5.95;3.85;;;14.80;99.90;;;;;;5114162;28;20315;-90
2023/04/22 04:53:21;;;;;;;13.40;4.53;;;14.90;99.90;;;;;;5113775;28;20281;-90
2023/04/22 04:55:48;;;;;;;9.00;4.93;;;14.80;99.90;;;;;;5113513;28;20236;-86
2023/04/22 04:58:15;;;;;;;8.57;4.07;;;14.80;99.90;;;;;;5113863;28;20201;-88
2023/04/22 05:00:42;;;;;;;14.43;5.55;;;14.80;99.90;;;;;;5120222;28;20223;-86
2023/04/22 05:03:09;;;;;;;10.35;4.70;;;14.80;99.90;;;;;;5115717;28;20231;-81
2023/04/22 05:05:36;;;;;;;11.35;4.53;;;14.90;99.90;;;;;;5114321;28;20204;-88
2023/04/22 05:08:04;;;;;;;6.35;5.00;;;14.90;99.90;;;;;;5113344;28;20222;-87
2023/04/22 05:10:31;;;;;;;7.40;4.60;;;14.90;99.90;;;;;;5113535;28;20232;-88
2023/04/22 05:12:58;;;;;;;6.57;4.35;;;14.90;99.90;;;;;;5113419;28;20278;-88
2023/04/22 05:15:25;;;;;;;10.82;4.47;;;14.90;99.90;;;;;;5113732;28;20236;-87
2023/04/22 05:17:52;;;;;;;9.00;5.22;;;14.90;99.90;;;;;;5112964;28;20657;-85
2023/04/22 05:20:19;;;;;;;10.68;4.57;;;15.00;99.90;;;;;;5112322;28;20235;-88
2023/04/22 05:22:46;;;;;;;9.68;5.03;;;15.00;99.90;;;;;;5112632;28;20267;-85
2023/04/22 05:25:14;;;;;;;13.40;5.00;;;14.90;99.90;;;;;;5113376;28;20250;-85
2023/04/22 05:27:41;;;;;;;13.65;5.47;;;14.90;99.90;;;;;;5112300;28;20288;-81
2023/04/22 05:30:09;;;;;;;10.68;5.00;;;15.00;99.90;;;;;;5116344;28;20227;-82
2023/04/22 05:32:37;;;;;;;9.43;5.45;;;15.10;99.90;;;;;;5118588;28;20201;-80
2023/04/22 05:35:04;;;;;;;9.05;4.70;;;15.10;99.90;;;;;;5113179;28;20253;-88
2023/04/22 05:37:31;;;;;;;9.45;4.82;;;15.10;99.90;;;;;;5113162;28;20296;-89
2023/04/22 05:39:58;;;;;;;9.65;5.15;;;15.10;99.90;;;;;;5113011;28;20293;-85
2023/04/22 05:42:26;;;;;;;7.75;4.38;;;15.10;99.90;;;;;;5112412;28;20548;-79
2023/04/22 05:44:53;;;;;;;13.85;5.43;;;15.10;99.90;;;;;;5112236;28;20232;-78
2023/04/22 05:47:20;;;;;;;8.68;4.38;;;15.10;99.90;;;;;;5112683;28;20254;-79
2023/04/22 05:49:47;;;;;;;9.20;4.10;;;15.00;99.90;;;;;;5111713;28;20262;-82
2023/04/22 05:52:14;;;;;;;10.13;4.13;;;15.00;99.90;;;;;;5112398;28;20324;-79
2023/04/22 05:54:41;;;;;;;10.73;5.05;;;15.00;99.90;;;;;;5111677;28;20730;-81
2023/04/22 05:57:08;;;;;;;10.35;5.00;;;15.00;99.90;;;;;;5112104;28;20232;-78
2023/04/22 05:59:36;;;;;;;12.25;5.57;;;15.00;99.90;;;;;;5112434;28;20205;-87
2023/04/22 06:02:03;;;;;;;7.63;4.43;;;15.00;99.90;;;;;;5113649;28;20205;-79
2023/04/22 06:04:30;;;;;;;10.60;5.28;;;15.00;99.90;;;;;;5112842;28;20205;-84
2023/04/22 06:06:57;;;;;;;5.90;4.18;;;15.00;99.90;;;;;;5111721;28;20261;-83
2023/04/22 06:09:24;;;;;;;13.32;5.43;;;15.00;99.90;;;;;;5111854;28;20657;-78
2023/04/22 06:11:51;;;;;;;6.15;4.50;;;15.00;99.90;;;;;;5111183;28;20243;-79
2023/04/22 06:14:18;;;;;;;12.98;6.05;;;15.00;99.90;;;;;;5111760;28;20196;-81
2023/04/22 06:16:46;;;;;;;8.05;4.78;;;15.00;99.90;;;;;;5111091;28;20242;-83
2023/04/22 06:19:13;;;;;;;14.23;6.07;;;15.00;99.90;;;;;;5111925;28;20200;-80
2023/04/22 06:21:41;;;;;;;10.02;4.78;;;15.00;99.90;;;;;;5113387;28;20205;-84
2023/04/22 06:24:09;;;;;;;10.55;4.78;;;15.00;99.90;;;;;;5114354;28;20201;-83
2023/04/22 06:26:36;;;;;;;12.45;5.07;;;15.10;99.90;;;;;;5111943;28;20668;-85
2023/04/22 06:29:04;;;;;;;6.35;4.93;;;15.00;99.90;;;;;;5111282;28;20231;-79
2023/04/22 06:31:31;;;;;;;9.95;5.32;;;15.00;99.90;;;;;;5111185;28;20285;-80
2023/04/22 06:33:59;;;;;;;10.48;4.30;;;15.10;99.90;;;;;;5113094;28;20205;-80
2023/04/22 06:36:27;;;;;;;9.00;5.93;;;15.10;99.90;;;;;;5106512;28;20659;-79
2023/04/22 06:38:54;;;;;;;10.00;5.53;;;15.10;99.90;;;;;;5111726;28;20201;-81
2023/04/22 06:41:22;;;;;;;8.57;5.43;;;15.10;99.90;;;;;;5111009;28;20287;-84
2023/04/22 06:43:49;;;;;;;10.15;5.20;;;15.10;99.90;;;;;;5110535;28;20212;-81
2023/04/22 06:46:16;;;;;;;9.73;4.93;;;15.10;99.90;;;;;;5110717;28;20193;-82
2023/04/22 06:48:43;;;;;;;9.85;5.10;;;15.20;99.90;;;;;;5111371;28;20224;-80
2023/04/22 06:51:11;;;;;;;12.82;6.25;;;15.10;99.90;;;;;;5111617;28;20264;-83
2023/04/22 06:53:38;;;;;;;11.15;6.38;;;15.10;99.90;;;;;;5110363;28;20234;-82
2023/04/22 06:56:06;;;;;;;6.45;4.65;;;15.10;99.90;;;;;;5110602;28;20237;-79
2023/04/22 06:58:33;;;;;;;14.93;6.43;;;15.20;99.90;;;;;;5109470;28;20240;-79
2023/04/22 07:01:00;;;;;;;10.13;5.50;;;15.10;99.90;;;;;;5111022;28;20213;-79
2023/04/22 07:03:27;;;;;;;8.30;5.40;;;15.10;99.90;;;;;;5127434;28;20312;-79
2023/04/22 07:05:54;;;;;;;14.57;6.03;;;15.10;99.90;;;;;;5119424;28;20207;-82
2023/04/22 07:08:22;;;;;;;10.35;5.13;;;15.20;99.90;;;;;;5111575;28;20228;-82
2023/04/22 07:10:49;;;;;;;12.70;6.38;;;15.10;99.90;;;;;;5110463;28;20300;-79
2023/04/22 07:13:16;;;;;;;7.35;4.95;;;15.10;99.90;;;;;;5110741;28;20672;-81
2023/04/22 07:15:45;;;;;;;7.80;4.95;;;15.10;99.90;;;;;;5112449;28;20204;-81
2023/04/22 07:18:11;;;;;;;6.97;5.05;;;15.20;99.90;;;;;;5114969;28;20297;-80
2023/04/22 07:20:38;;;;;;;11.40;5.13;;;15.20;99.90;;;;;;5114903;28;20243;-81
2023/04/22 07:23:05;;;;;;;7.70;4.88;;;15.30;99.90;;;;;;5114387;28;20308;-80
2023/04/22 07:25:34;;;;;;;6.95;5.22;;;15.30;99.90;;;;;;5114338;28;20257;-81
2023/04/22 07:28:01;;;;;;;11.25;4.80;;;15.40;99.90;;;;;;5114353;28;20204;-81
2023/04/22 07:30:28;;;;;;;7.18;5.30;;;15.40;99.90;;;;;;5114747;28;20285;-80
2023/04/22 07:32:55;;;;;;;9.45;4.30;;;15.40;99.90;;;;;;5113467;28;20268;-80
2023/04/22 07:35:21;;;;;;;9.43;5.20;;;15.30;99.90;;;;;;5115911;28;20205;-80
2023/04/22 07:37:48;;;;;;;8.75;5.32;;;15.30;99.90;;;;;;5114445;28;20205;-82
2023/04/22 07:40:15;;;;;;;13.48;5.45;;;15.40;99.90;;;;;;5114235;28;20205;-82
2023/04/22 07:42:44;;;;;;;15.45;6.30;;;15.40;99.90;;;;;;5114156;28;20204;-82
2023/04/22 07:45:11;;;;;;;8.10;5.70;;;15.40;99.90;;;;;;5113362;28;20283;-83
2023/04/22 07:47:40;;;;;;;13.80;5.88;;;15.50;99.90;;;;;;5113965;27;20628;-86
2023/04/22 07:50:08;;;;;;;10.02;6.20;;;15.70;99.90;;;;;;5114259;28;20205;-83
2023/04/22 07:52:35;;;;;;;9.45;5.93;;;15.80;99.90;;;;;;5113803;28;20233;-82
2023/04/22 07:55:02;;;;;;;11.20;6.35;;;15.80;99.90;;;;;;5113760;28;20266;-82
2023/04/22 07:57:29;;;;;;;8.63;4.70;;;15.90;99.90;;;;;;5114063;28;20205;-82
2023/04/22 07:59:58;;;;;;;10.48;4.30;;;16.20;99.90;;;;;;5113435;28;20685;-80
2023/04/22 08:02:24;;;;;;;6.85;4.70;;;16.40;99.90;;;;;;5113067;27;20201;-83
2023/04/22 08:04:51;;;;;;;8.38;4.70;;;16.70;99.90;;;;;;5116074;28;20236;-83
2023/04/22 08:07:18;;;;;;;9.27;5.47;;;16.80;99.90;;;;;;5118707;28;20201;-83
2023/04/22 08:09:45;;;;;;;7.35;5.20;;;17.00;99.90;;;;;;5113984;28;20245;-85
2023/04/22 08:12:13;;;;;;;10.30;5.80;;;17.00;99.90;;;;;;5113465;28;20670;-84
2023/04/22 08:14:40;;;;;;;9.60;6.13;;;16.90;99.90;;;;;;5113297;27;20216;-82
2023/04/22 08:17:08;;;;;;;7.10;6.00;;;17.10;99.90;;;;;;5112957;28;20229;-82
2023/04/22 08:19:35;;;;;;;16.63;5.95;;;17.20;99.90;;;;;;5113956;28;20204;-88
2023/04/22 08:22:02;;;;;;;7.07;4.90;;;17.10;99.90;;;;;;5113377;28;20252;-85
2023/04/22 08:24:29;;;;;;;8.05;5.00;;;16.90;99.90;;;;;;5114589;28;20204;-85
2023/04/22 08:26:57;;;;;;;8.77;4.47;;;16.80;99.90;;;;;;5113244;28;20550;-82
2023/04/22 08:29:24;;;;;;;26.80;7.55;;;16.60;99.90;;;;;;5113435;28;20253;-81
2023/04/22 08:31:51;;;;;;;9.73;5.10;;;16.50;99.90;;;;;;5113420;28;20264;-88
2023/04/22 08:34:20;;;;;;;7.97;5.03;;;16.50;99.90;;;;;;5114597;28;20197;-88
2023/04/22 08:36:52;;;;;;;10.90;4.97;;;16.60;99.90;;;;;;5122206;28;20200;-88
2023/04/22 08:39:19;;;;;;;11.23;5.47;;;16.50;99.90;;;;;;5117734;28;20598;-85
2023/04/22 08:41:46;;;;;;;13.93;5.43;;;16.40;99.90;;;;;;5113331;28;20262;-87
2023/04/22 08:44:14;;;;;;;11.15;5.80;;;16.20;99.90;;;;;;5114470;28;20239;-85
2023/04/22 08:46:45;;;;;;;10.10;5.68;;;16.10;99.90;;;;;;5113549;28;20240;-81
2023/04/22 08:49:14;;;;;;;12.88;6.57;;;16.10;99.90;;;;;;5112472;28;20196;-83
2023/04/22 08:51:42;;;;;;;7.40;4.97;;;16.00;99.90;;;;;;5112142;28;20233;-82
2023/04/22 08:54:10;;;;;;;6.47;4.78;;;16.10;99.90;;;;;;5112111;28;20854;-81
2023/04/22 08:56:40;;;;;;;9.18;5.93;;;16.10;99.90;;;;;;5110754;27;20204;-83
2023/04/22 08:59:09;;;;;;;8.93;5.60;;;16.30;99.90;;;;;;5110727;28;20205;-82
2023/04/22 09:01:37;;;;;;;5.88;5.25;;;16.30;99.90;;;;;;5112764;28;20680;-91
2023/04/22 09:04:04;;;;;;;10.10;5.90;;;16.20;99.90;;;;;;5113086;28;20197;-86
2023/04/22 09:06:32;;;;;;;9.70;5.57;;;16.20;99.90;;;;;;5114625;28;20209;-87
2023/04/22 09:09:01;;;;;;;10.98;7.00;;;16.20;99.90;;;;;;5115963;28;20222;-82
2023/04/22 09:11:29;;;;;;;11.55;5.97;;;16.20;99.90;;;;;;5112456;28;20220;-83
2023/04/22 09:13:56;;;;;;;9.63;5.68;;;16.30;99.90;;;;;;5112238;28;20684;-83
2023/04/22 09:16:23;;;;;;;9.43;5.93;;;16.40;99.90;;;;;;5112553;28;20244;-82
2023/04/22 09:18:50;;;;;;;7.28;5.53;;;16.50;99.90;;;;;;5112437;28;20197;-83
2023/04/22 09:21:17;;;;;;;13.90;5.55;;;16.50;99.90;;;;;;5112317;28;20236;-79
2023/04/22 09:23:49;;;;;;;12.15;6.07;;;16.60;99.90;;;;;;5111865;28;20248;-82
2023/04/22 09:26:19;;;;;;;10.77;6.28;;;16.70;99.90;;;;;;5112215;28;20576;-80
2023/04/22 09:28:51;;;;;;;8.30;6.35;;;16.80;99.90;;;;;;5111548;28;20212;-80
2023/04/22 09:31:18;;;;;;;9.90;5.35;;;16.80;99.90;;;;;;5111084;28;20262;-81
2023/04/22 09:33:50;;;;;;;10.75;5.78;;;16.90;99.90;;;;;;5111050;28;20228;-83
2023/04/22 09:36:17;;;;;;;9.23;5.43;;;16.80;99.90;;;;;;5112241;28;20686;-84
2023/04/22 09:38:54;;;;;;;5.78;4.65;;;16.80;99.90;;;;;;5112593;28;20205;-81
2023/04/22 09:41:29;;;;;;;7.45;5.65;;;16.70;99.90;;;;;;5112668;28;20208;-81
2023/04/22 09:43:57;;;;;;;7.38;4.90;;;16.60;99.90;;;;;;5111738;28;20245;-85
2023/04/22 09:46:25;;;;;;;8.23;5.00;;;16.60;99.90;;;;;;5111924;28;20288;-79
2023/04/22 09:48:53;;;;;;;9.85;5.50;;;16.60;99.90;;;;;;5111154;28;20250;-81
2023/04/22 09:51:20;;;;;;;11.82;4.45;;;16.70;99.90;;;;;;5110779;28;20690;-80
2023/04/22 09:53:58;;;;;;;7.40;4.05;;;16.60;99.90;;;;;;5100717;28;20279;-83
2023/04/22 09:56:43;;;;;;;9.15;4.30;;;16.50;99.90;;;;;;5111667;28;20292;-84
2023/04/22 09:59:10;;;;;;;7.45;5.28;;;16.40;99.90;;;;;;5110703;28;20240;-78
2023/04/22 10:01:38;;;;;;;8.13;3.78;;;16.40;99.90;;;;;;5111766;28;20362;-77
2023/04/22 10:04:05;;;;;;;5.72;3.88;;;16.50;99.90;;;;;;5110922;27;20303;-81
2023/04/22 10:06:32;;;;;;;9.43;4.97;;;16.60;99.90;;;;;;5111219;28;20715;-82
2023/04/22 10:09:00;;;;;;;9.98;4.70;;;16.70;99.90;;;;;;5111727;28;20266;-77
2023/04/22 10:11:28;;;;;;;9.30;4.70;;;16.80;99.90;;;;;;5112616;28;20676;-81
2023/04/22 10:13:56;;;;;;;7.97;4.65;;;17.10;99.90;;;;;;5100348;28;20271;-80
2023/04/22 10:16:24;;;;;;;9.60;3.90;;;17.20;99.90;;;;;;5111080;28;20209;-79
2023/04/22 10:18:55;;;;;;;8.40;4.40;;;17.20;99.90;;;;;;5111000;28;20203;-79
2023/04/22 10:21:25;;;;;;;10.18;4.43;;;17.10;99.90;;;;;;5111122;28;20216;-79
2023/04/22 10:23:53;;;;;;;8.52;4.55;;;17.00;99.90;;;;;;5110098;28;20227;-82
2023/04/22 10:26:40;;;;;;;9.80;4.30;;;16.70;99.90;;;;;;5110695;28;20235;-80
2023/04/22 10:29:09;;;;;;;9.82;5.45;;;16.60;99.90;;;;;;5111497;28;20308;-77
2023/04/22 10:31:38;;;;;;;10.38;5.00;;;16.50;99.90;;;;;;5110973;28;20232;-81
2023/04/22 10:34:15;;;;;;;10.57;4.50;;;16.50;99.90;;;;;;5111182;28;20320;-81
2023/04/22 10:37:01;;;;;;;13.50;4.80;;;16.30;99.90;;;;;;5111682;28;20205;-78
2023/04/22 10:39:29;;;;;;;8.13;4.80;;;16.30;99.90;;;;;;5111281;28;20192;-76
2023/04/22 10:42:10;;;;;;;9.40;4.57;;;16.30;99.90;;;;;;5110709;28;20258;-76
2023/04/22 10:44:52;;;;;;;10.02;5.10;;;16.30;99.90;;;;;;5111405;28;20197;-76
2023/04/22 10:47:29;;;;;;;8.70;5.05;;;16.30;99.90;;;;;;5110775;28;20665;-77
2023/04/22 10:50:14;;;;;;;11.75;5.80;;;16.20;99.90;;;;;;5111585;28;20243;-76
2023/04/22 10:52:43;;;;;;;13.88;5.55;;;16.20;99.90;;;;;;5114427;28;20263;-77
2023/04/22 10:55:10;;;;;;;8.70;4.22;;;16.20;99.90;;;;;;5115158;28;20204;-76
2023/04/22 10:57:40;;;;;;;13.70;6.40;;;16.20;99.90;;;;;;5115295;28;20752;-82
2023/04/22 11:00:43;;;;;;;9.45;4.72;;;16.20;99.90;;;;;;5115019;28;20240;-76
2023/04/22 11:03:13;;;;;;;8.70;4.45;;;16.20;99.90;;;;;;5061924;28;20209;-76
2023/04/22 11:05:40;;;;;;;10.38;4.45;;;16.20;99.90;;;;;;5097118;27;20255;-78
2023/04/22 11:08:12;;;;;;;9.60;4.72;;;16.20;99.90;;;;;;5117759;27;20205;-76
2023/04/22 11:10:41;;;;;;;9.50;5.10;;;16.10;99.90;;;;;;5115911;27;20251;-77
2023/04/22 11:13:11;;;;;;;10.15;5.55;;;16.20;99.90;;;;;;5121109;27;20233;-78
2023/04/22 11:15:40;;;;;;;10.63;5.93;;;16.30;99.90;;;;;;5133717;27;20204;-77
2023/04/22 11:18:17;;;;;;;5.90;4.53;;;16.30;99.90;;;;;;5126890;27;20725;-77
2023/04/22 11:20:44;;;;;;;9.35;5.30;;;16.30;99.90;;;;;;5102798;28;20257;-77
2023/04/22 11:23:11;;;;;;;10.57;5.55;;;16.30;99.90;;;;;;5114504;28;20285;-77
2023/04/22 11:25:38;;;;;;;9.75;5.75;;;16.30;99.90;;;;;;5114825;28;20285;-78
2023/04/22 11:28:05;;;;;;;13.93;6.90;;;16.40;99.90;;;;;;5114920;27;20262;-77
2023/04/22 11:30:32;;;;;;;11.57;5.20;;;16.40;99.90;;;;;;5114054;28;20209;-77
2023/04/22 11:33:00;;;;;;;8.43;4.80;;;16.40;99.90;;;;;;5124226;27;20259;-78
2023/04/22 11:35:31;;;;;;;11.40;3.90;;;16.40;99.90;;;;;;5134927;27;20240;-81
2023/04/22 11:37:59;;;;;;;8.45;4.63;;;16.40;99.90;;;;;;5134192;27;20222;-77
2023/04/22 11:40:28;;;;;;;8.40;5.03;;;16.40;99.90;;;;;;5134705;27;20225;-78
2023/04/22 11:42:56;;;;;;;14.15;4.80;;;16.40;99.90;;;;;;5126026;27;20212;-78
2023/04/22 11:45:23;;;;;;;7.95;4.57;;;16.40;99.90;;;;;;5114023;28;20206;-77
2023/04/22 11:47:52;;;;;;;12.13;4.93;;;16.40;99.90;;;;;;5113920;28;20200;-76
2023/04/22 11:50:22;;;;;;;9.73;5.72;;;16.30;99.90;;;;;;5114112;28;20718;-79
2023/04/22 11:52:52;;;;;;;14.95;5.30;;;16.10;99.90;;;;;;5113744;28;20264;-79
2023/04/22 11:55:22;;;;;;;10.35;5.65;;;16.00;99.90;;;;;;5113964;28;20254;-78
2023/04/22 11:57:55;;;;;;;9.75;5.78;;;15.90;99.90;;;;;;5113689;28;20219;-82
2023/04/22 12:00:24;;;;;;;10.77;5.70;;;15.80;99.90;;;;;;5113739;28;20201;-81
2023/04/22 12:02:59;;;;;;;10.57;5.57;;;15.70;99.90;;;;;;5112594;28;20252;-81
2023/04/22 12:05:37;;;;;;;10.77;6.40;;;15.50;99.90;;;;;;5113929;28;20239;-79
2023/04/22 12:08:07;;;;;;;7.60;6.80;;;15.30;99.90;;;;;;5112136;28;20250;-79
2023/04/22 12:10:40;;;;;;;8.18;6.97;;;15.30;99.90;;;;;;5113365;28;20672;-81
2023/04/22 12:13:07;;;;;;;10.77;8.05;;;15.30;99.90;;;;;;5113780;28;20327;-80
2023/04/22 12:15:39;;;;;;;9.20;6.30;;;15.20;99.90;;;;;;5113838;28;20208;-79
2023/04/22 12:18:06;;;;;;;10.70;6.68;;;15.20;99.90;;;;;;5111793;28;20206;-80
2023/04/22 12:20:34;;;;;;;8.43;6.75;;;15.20;99.90;;;;;;5113252;28;20292;-79
2023/04/22 12:23:02;;;;;;;7.95;6.57;;;15.30;99.90;;;;;;5113012;28;20684;-79
2023/04/22 12:25:32;;;;;;;9.82;6.80;;;15.20;99.90;;;;;;5113281;28;20200;-78
2023/04/22 12:27:59;;;;;;;9.45;6.45;;;15.20;99.90;;;;;;5112464;28;20672;-80
2023/04/22 12:30:26;;;;;;;14.75;8.13;;;15.10;99.90;;;;;;5113314;28;20229;-79
2023/04/22 12:32:53;;;;;;;10.85;7.25;;;15.00;99.90;;;;;;5113043;28;20294;-82
2023/04/22 12:35:21;;;;;;;9.43;6.85;;;15.00;99.90;;;;;;5112991;28;20252;-81
2023/04/22 12:37:47;;;;;;;10.38;7.55;;;15.00;99.90;;;;;;5112726;28;20239;-81
2023/04/22 12:40:14;;;;;;;7.97;6.25;;;15.00;99.90;;;;;;5113093;28;20209;-83
2023/04/22 12:42:43;;;;;;;13.40;8.00;;;14.90;99.90;;;;;;5114738;28;20281;-81
2023/04/22 12:45:10;;;;;;;11.77;7.72;;;15.00;99.90;;;;;;5114991;28;20697;-81
2023/04/22 12:47:37;;;;;;;10.43;7.00;;;14.90;99.90;;;;;;5114898;28;20672;-81